createdAt,value
2017-03-31T03:00:36.106Z,1017.9
2017-03-31T03:01:01.665Z,1017.92
2017-03-31T03:01:27.223Z,1017.95
2017-03-31T03:01:52.786Z,1017.89
2017-03-31T03:02:18.346Z,1017.91
2017-03-31T03:02:43.906Z,1017.9
2017-03-31T03:03:09.469Z,1017.86
2017-03-31T03:03:35.080Z,1017.88
2017-03-31T03:04:00.665Z,1017.9
2017-03-31T03:04:26.240Z,1017.89
2017-03-31T03:04:51.830Z,1017.9
2017-03-31T03:05:17.401Z,1017.84
2017-03-31T03:05:42.959Z,1017.9
2017-03-31T03:06:08.507Z,1017.86
2017-03-31T03:06:34.069Z,1017.87
2017-03-31T03:06:59.632Z,1017.89
2017-03-31T03:07:25.262Z,1017.82
2017-03-31T03:07:50.804Z,1017.84
2017-03-31T03:08:16.352Z,1017.85
2017-03-31T03:08:41.926Z,1017.83
2017-03-31T03:09:07.492Z,1017.84
2017-03-31T03:09:33.053Z,1017.81
2017-03-31T03:09:58.618Z,1017.81
2017-03-31T03:10:24.191Z,1017.85
2017-03-31T03:10:49.739Z,1017.8
2017-03-31T03:11:15.427Z,1017.79
2017-03-31T03:11:41.009Z,1017.8
2017-03-31T03:12:06.560Z,1017.81
2017-03-31T03:12:32.218Z,1017.82
2017-03-31T03:12:57.769Z,1017.82
2017-03-31T03:13:23.313Z,1017.79
2017-03-31T03:13:48.866Z,1017.79
2017-03-31T03:14:14.612Z,1017.78
2017-03-31T03:14:40.152Z,1017.77
2017-03-31T03:15:05.739Z,1017.75
2017-03-31T03:15:31.441Z,1017.73
2017-03-31T03:16:29.840Z,1017.72
2017-03-31T03:16:55.411Z,1017.7
2017-03-31T03:17:20.966Z,1017.72
2017-03-31T03:17:46.517Z,1017.68
2017-03-31T03:18:12.071Z,1017.72
2017-03-31T03:18:37.672Z,1017.69
2017-03-31T03:19:03.240Z,1017.7
2017-03-31T03:19:28.784Z,1017.68
2017-03-31T03:19:54.349Z,1017.68
2017-03-31T03:20:20.311Z,1017.69
2017-03-31T03:20:45.879Z,1017.69
2017-03-31T03:21:11.411Z,1017.63
2017-03-31T03:21:36.961Z,1017.65
2017-03-31T03:22:02.492Z,1017.65
2017-03-31T03:22:28.037Z,1017.68
2017-03-31T03:22:53.618Z,1017.58
2017-03-31T03:23:19.168Z,1017.62
2017-03-31T03:23:44.718Z,1017.6
2017-03-31T03:24:10.281Z,1017.64
2017-03-31T03:24:35.842Z,1017.63
2017-03-31T03:25:01.416Z,1017.61
2017-03-31T03:25:26.994Z,1017.62
2017-03-31T03:25:52.537Z,1017.63
2017-03-31T03:26:18.089Z,1017.65
2017-03-31T03:26:43.651Z,1017.64
2017-03-31T03:27:09.201Z,1017.6
2017-03-31T03:27:34.809Z,1017.58
2017-03-31T03:28:00.350Z,1017.6
2017-03-31T03:28:25.928Z,1017.58
2017-03-31T03:28:51.511Z,1017.61
2017-03-31T03:29:17.075Z,1017.6
2017-03-31T03:29:42.641Z,1017.59
2017-03-31T03:30:08.201Z,1017.58
2017-03-31T03:30:33.752Z,1017.6
2017-03-31T03:30:59.305Z,1017.57
2017-03-31T03:31:24.868Z,1017.59
2017-03-31T03:31:50.416Z,1017.57
2017-03-31T03:32:16.054Z,1017.58
2017-03-31T03:32:41.576Z,1017.58
2017-03-31T03:33:07.168Z,1017.61
2017-03-31T03:33:32.801Z,1017.61
2017-03-31T03:33:58.344Z,1017.59
2017-03-31T03:34:23.979Z,1017.58
2017-03-31T03:34:49.540Z,1017.56
2017-03-31T03:35:15.091Z,1017.54
2017-03-31T03:35:40.639Z,1017.57
2017-03-31T03:36:06.194Z,1017.53
2017-03-31T03:36:31.728Z,1017.54
2017-03-31T03:36:57.259Z,1017.51
2017-03-31T03:37:22.870Z,1017.53
2017-03-31T03:37:48.431Z,1017.52
2017-03-31T03:38:14.002Z,1017.49
2017-03-31T03:38:39.545Z,1017.56
2017-03-31T03:39:05.160Z,1017.52
2017-03-31T03:39:30.714Z,1017.52
2017-03-31T03:39:56.285Z,1017.52
2017-03-31T03:40:21.828Z,1017.5
2017-03-31T03:40:47.399Z,1017.45
2017-03-31T03:41:12.958Z,1017.48
2017-03-31T03:41:38.528Z,1017.5
2017-03-31T03:42:04.191Z,1017.45
2017-03-31T03:42:29.738Z,1017.46
2017-03-31T03:42:55.290Z,1017.52
2017-03-31T03:43:20.828Z,1017.48
2017-03-31T03:43:46.369Z,1017.47
2017-03-31T03:44:11.932Z,1017.47
2017-03-31T03:44:37.483Z,1017.42
2017-03-31T03:45:03.028Z,1017.44
2017-03-31T03:45:28.582Z,1017.42
2017-03-31T03:45:54.151Z,1017.42
2017-03-31T03:46:19.708Z,1017.41
2017-03-31T03:46:45.281Z,1017.39
2017-03-31T03:47:10.849Z,1017.43
2017-03-31T03:47:36.407Z,1017.44
2017-03-31T03:48:01.970Z,1017.35
2017-03-31T03:48:27.541Z,1017.4
2017-03-31T03:48:53.079Z,1017.38
2017-03-31T03:49:18.627Z,1017.39
2017-03-31T03:49:44.193Z,1017.36
2017-03-31T03:50:09.843Z,1017.35
2017-03-31T03:50:35.392Z,1017.36
2017-03-31T03:51:00.937Z,1017.35
2017-03-31T03:51:26.621Z,1017.37
2017-03-31T03:51:52.182Z,1017.35
2017-03-31T03:52:17.722Z,1017.31
2017-03-31T03:52:43.262Z,1017.33
2017-03-31T03:53:08.808Z,1017.33
2017-03-31T03:53:34.355Z,1017.35
2017-03-31T03:53:59.951Z,1017.31
2017-03-31T03:54:25.496Z,1017.32
2017-03-31T03:54:51.204Z,1017.31
2017-03-31T03:55:16.747Z,1017.31
2017-03-31T03:55:42.313Z,1017.3
2017-03-31T03:56:07.920Z,1017.32
2017-03-31T03:56:33.548Z,1017.3
2017-03-31T03:56:59.091Z,1017.31
2017-03-31T03:57:24.632Z,1017.29
2017-03-31T03:57:50.179Z,1017.28
2017-03-31T03:58:15.730Z,1017.27
2017-03-31T03:58:41.277Z,1017.24
2017-03-31T03:59:06.819Z,1017.27
2017-03-31T03:59:32.358Z,1017.24
2017-03-31T03:59:57.899Z,1017.27
2017-03-31T04:00:23.441Z,1017.23
2017-03-31T04:00:49.012Z,1017.24
2017-03-31T04:01:14.566Z,1017.24
2017-03-31T04:01:40.241Z,1017.24
2017-03-31T04:02:05.788Z,1017.19
2017-03-31T04:02:31.345Z,1017.18
2017-03-31T04:02:56.890Z,1017.19
2017-03-31T04:03:22.455Z,1017.22
2017-03-31T04:03:47.995Z,1017.17
2017-03-31T04:04:13.549Z,1017.16
2017-03-31T04:04:39.092Z,1017.18
2017-03-31T04:05:04.658Z,1017.18
2017-03-31T04:05:30.236Z,1017.14
2017-03-31T04:05:55.799Z,1017.21
2017-03-31T04:06:21.357Z,1017.11
2017-03-31T04:06:46.916Z,1017.11
2017-03-31T04:07:12.479Z,1017.13
2017-03-31T04:07:38.027Z,1017.12
2017-03-31T04:08:03.589Z,1017.1
2017-03-31T04:08:29.152Z,1017.1
2017-03-31T04:08:54.700Z,1017.09
2017-03-31T04:09:20.254Z,1017.09
2017-03-31T04:09:45.825Z,1017.09
2017-03-31T04:10:11.388Z,1017.07
2017-03-31T04:10:36.946Z,1017.1
2017-03-31T04:11:02.511Z,1017.08
2017-03-31T04:11:28.069Z,1017.04
2017-03-31T04:11:53.643Z,1017.08
2017-03-31T04:12:19.186Z,1017.03
2017-03-31T04:12:44.752Z,1017.03
2017-03-31T04:13:10.299Z,1017
2017-03-31T04:13:35.872Z,1017.04
2017-03-31T04:14:01.504Z,1017.02
2017-03-31T04:14:27.061Z,1017.04
2017-03-31T04:14:52.611Z,1017.02
2017-03-31T04:15:18.178Z,1016.98
2017-03-31T04:15:43.761Z,1016.95
2017-03-31T04:16:09.319Z,1016.94
2017-03-31T04:16:34.913Z,1016.96
2017-03-31T04:17:00.540Z,1016.92
2017-03-31T04:17:26.098Z,1016.99
2017-03-31T04:17:51.734Z,1016.94
2017-03-31T04:18:17.290Z,1016.98
2017-03-31T04:18:42.840Z,1016.96
2017-03-31T04:19:08.425Z,1016.96
2017-03-31T04:19:33.992Z,1016.95
2017-03-31T04:19:59.551Z,1016.95
2017-03-31T04:20:25.116Z,1016.95
2017-03-31T04:20:50.675Z,1016.93
2017-03-31T04:21:16.255Z,1016.94
2017-03-31T04:21:41.811Z,1016.91
2017-03-31T04:22:07.362Z,1016.93
2017-03-31T04:22:32.929Z,1016.91
2017-03-31T04:22:58.491Z,1016.88
2017-03-31T04:23:24.046Z,1016.92
2017-03-31T04:23:49.646Z,1016.92
2017-03-31T04:24:15.198Z,1016.91
2017-03-31T04:24:40.762Z,1016.9
2017-03-31T04:25:06.317Z,1016.91
2017-03-31T04:25:31.878Z,1016.93
2017-03-31T04:25:57.438Z,1016.93
2017-03-31T04:26:23.000Z,1016.87
2017-03-31T04:26:48.573Z,1016.91
2017-03-31T04:27:14.150Z,1016.9
2017-03-31T04:27:39.719Z,1016.93
2017-03-31T04:28:05.268Z,1016.86
2017-03-31T04:28:30.838Z,1016.89
2017-03-31T04:28:56.411Z,1016.88
2017-03-31T04:29:21.987Z,1016.86
2017-03-31T04:29:47.529Z,1016.84
2017-03-31T04:30:13.083Z,1016.88
2017-03-31T04:30:38.633Z,1016.89
2017-03-31T04:31:04.169Z,1016.87
2017-03-31T04:31:29.752Z,1016.89
2017-03-31T04:31:55.318Z,1016.88
2017-03-31T04:32:20.880Z,1016.87
2017-03-31T04:32:46.442Z,1016.85
2017-03-31T04:33:12.004Z,1016.86
2017-03-31T04:33:37.690Z,1016.86
2017-03-31T04:34:03.257Z,1016.84
2017-03-31T04:34:28.870Z,1016.82
2017-03-31T04:34:54.440Z,1016.84
2017-03-31T04:35:20.011Z,1016.83
2017-03-31T04:35:45.568Z,1016.87
2017-03-31T04:36:11.130Z,1016.83
2017-03-31T04:36:36.680Z,1016.84
2017-03-31T04:37:02.236Z,1016.86
2017-03-31T04:37:27.783Z,1016.84
2017-03-31T04:37:53.328Z,1016.85
2017-03-31T04:38:18.909Z,1016.83
2017-03-31T04:38:44.483Z,1016.86
2017-03-31T04:39:10.043Z,1016.87
2017-03-31T04:39:35.600Z,1016.87
2017-03-31T04:40:01.144Z,1016.83
2017-03-31T04:40:26.723Z,1016.82
2017-03-31T04:40:52.278Z,1016.84
2017-03-31T04:41:17.849Z,1016.83
2017-03-31T04:41:43.409Z,1016.88
2017-03-31T04:42:08.990Z,1016.87
2017-03-31T04:42:34.561Z,1016.83
2017-03-31T04:43:00.138Z,1016.82
2017-03-31T04:43:25.770Z,1016.83
2017-03-31T04:43:51.337Z,1016.82
2017-03-31T04:44:16.894Z,1016.83
2017-03-31T04:44:42.452Z,1016.82
2017-03-31T04:45:08.015Z,1016.79
2017-03-31T04:45:33.585Z,1016.78
2017-03-31T04:45:59.167Z,1016.82
2017-03-31T04:46:24.750Z,1016.76
2017-03-31T04:46:50.328Z,1016.76
2017-03-31T04:47:15.999Z,1016.75
2017-03-31T04:47:41.584Z,1016.74
2017-03-31T04:48:07.236Z,1016.71
2017-03-31T04:48:32.821Z,1016.77
2017-03-31T04:48:58.381Z,1016.72
2017-03-31T04:49:23.942Z,1016.71
2017-03-31T04:49:49.581Z,1016.72
2017-03-31T04:50:15.160Z,1016.74
2017-03-31T04:50:40.719Z,1016.71
2017-03-31T04:51:06.268Z,1016.7
2017-03-31T04:51:31.836Z,1016.68
2017-03-31T04:51:57.389Z,1016.7
2017-03-31T04:52:23.050Z,1016.68
2017-03-31T04:52:48.601Z,1016.68
2017-03-31T04:53:14.175Z,1016.67
2017-03-31T04:53:39.755Z,1016.68
2017-03-31T04:54:05.336Z,1016.66
2017-03-31T04:54:30.908Z,1016.69
2017-03-31T04:54:56.510Z,1016.67
2017-03-31T04:55:22.177Z,1016.67
2017-03-31T04:55:47.748Z,1016.67
2017-03-31T04:56:13.329Z,1016.63
2017-03-31T04:56:38.892Z,1016.64
2017-03-31T04:57:04.455Z,1016.64
2017-03-31T04:57:30.017Z,1016.64
2017-03-31T04:57:55.571Z,1016.68
2017-03-31T04:58:21.142Z,1016.62
2017-03-31T04:58:46.712Z,1016.66
2017-03-31T04:59:12.306Z,1016.64
2017-03-31T04:59:37.901Z,1016.67
2017-03-31T05:00:03.471Z,1016.62
2017-03-31T05:00:29.057Z,1016.65
2017-03-31T05:00:54.632Z,1016.68
2017-03-31T05:01:20.223Z,1016.64
2017-03-31T05:01:45.789Z,1016.58
2017-03-31T05:02:11.353Z,1016.6
2017-03-31T05:02:36.983Z,1016.61
2017-03-31T05:03:02.570Z,1016.61
2017-03-31T05:03:28.159Z,1016.59
2017-03-31T05:03:53.815Z,1016.58
2017-03-31T05:04:19.389Z,1016.59
2017-03-31T05:04:44.978Z,1016.57
2017-03-31T05:05:10.558Z,1016.61
2017-03-31T05:05:36.151Z,1016.59
2017-03-31T05:06:01.718Z,1016.64
2017-03-31T05:06:27.319Z,1016.56
2017-03-31T05:06:52.910Z,1016.57
2017-03-31T05:07:18.490Z,1016.59
2017-03-31T05:07:44.067Z,1016.6
2017-03-31T05:08:09.651Z,1016.58
2017-03-31T05:08:35.220Z,1016.64
2017-03-31T05:09:00.790Z,1016.61
2017-03-31T05:09:26.364Z,1016.59
2017-03-31T05:09:51.938Z,1016.62
2017-03-31T05:10:17.554Z,1016.58
2017-03-31T05:10:43.147Z,1016.6
2017-03-31T05:11:08.698Z,1016.62
2017-03-31T05:11:34.299Z,1016.58
2017-03-31T05:11:59.956Z,1016.59
2017-03-31T05:12:25.520Z,1016.6
2017-03-31T05:12:51.147Z,1016.63
2017-03-31T05:13:16.755Z,1016.56
2017-03-31T05:13:42.291Z,1016.62
2017-03-31T05:14:07.856Z,1016.59
2017-03-31T05:14:33.571Z,1016.59
2017-03-31T05:14:59.152Z,1016.58
2017-03-31T05:15:24.714Z,1016.59
2017-03-31T05:16:33.376Z,1016.59
2017-03-31T05:16:58.948Z,1016.63
2017-03-31T05:17:24.520Z,1016.6
2017-03-31T05:17:50.090Z,1016.58
2017-03-31T05:18:15.643Z,1016.59
2017-03-31T05:18:41.220Z,1016.58
2017-03-31T05:19:06.796Z,1016.59
2017-03-31T05:19:32.339Z,1016.61
2017-03-31T05:19:57.911Z,1016.63
2017-03-31T05:20:23.485Z,1016.56
2017-03-31T05:20:49.036Z,1016.59
2017-03-31T05:21:14.677Z,1016.61
2017-03-31T05:21:40.228Z,1016.62
2017-03-31T05:22:05.911Z,1016.62
2017-03-31T05:22:31.476Z,1016.68
2017-03-31T05:22:57.030Z,1016.63
2017-03-31T05:23:22.600Z,1016.65
2017-03-31T05:23:48.159Z,1016.65
2017-03-31T05:24:51.775Z,1016.66
2017-03-31T05:25:17.346Z,1016.65
2017-03-31T05:25:42.918Z,1016.67
2017-03-31T05:26:08.522Z,1016.62
2017-03-31T05:26:34.098Z,1016.6
2017-03-31T05:26:59.675Z,1016.63
2017-03-31T05:27:25.236Z,1016.63
2017-03-31T05:27:50.807Z,1016.59
2017-03-31T05:28:16.375Z,1016.61
2017-03-31T05:28:41.967Z,1016.61
2017-03-31T05:29:07.521Z,1016.62
2017-03-31T05:29:33.086Z,1016.59
2017-03-31T05:29:58.652Z,1016.62
2017-03-31T05:30:24.206Z,1016.58
2017-03-31T05:30:49.787Z,1016.61
2017-03-31T05:31:15.353Z,1016.58
2017-03-31T05:31:40.910Z,1016.53
2017-03-31T05:32:06.611Z,1016.53
2017-03-31T05:32:32.187Z,1016.6
2017-03-31T05:32:57.738Z,1016.55
2017-03-31T05:33:23.347Z,1016.6
2017-03-31T05:33:48.955Z,1016.55
2017-03-31T05:34:14.507Z,1016.58
2017-03-31T05:34:40.148Z,1016.52
2017-03-31T05:35:05.714Z,1016.52
2017-03-31T05:35:31.292Z,1016.5
2017-03-31T05:35:56.866Z,1016.51
2017-03-31T05:36:22.431Z,1016.5
2017-03-31T05:36:47.980Z,1016.53
2017-03-31T05:37:13.550Z,1016.48
2017-03-31T05:37:39.118Z,1016.51
2017-03-31T05:38:04.681Z,1016.52
2017-03-31T05:38:30.244Z,1016.54
2017-03-31T05:38:55.832Z,1016.47
2017-03-31T05:39:21.401Z,1016.48
2017-03-31T05:39:46.960Z,1016.49
2017-03-31T05:40:12.518Z,1016.49
2017-03-31T05:40:38.095Z,1016.5
2017-03-31T05:41:03.650Z,1016.52
2017-03-31T05:41:29.221Z,1016.47
2017-03-31T05:41:54.790Z,1016.49
2017-03-31T05:42:20.332Z,1016.47
2017-03-31T05:42:45.913Z,1016.47
2017-03-31T05:43:11.480Z,1016.48
2017-03-31T05:43:37.071Z,1016.46
2017-03-31T05:44:02.630Z,1016.48
2017-03-31T05:44:28.163Z,1016.42
2017-03-31T05:44:53.711Z,1016.48
2017-03-31T05:45:19.311Z,1016.46
2017-03-31T05:45:44.936Z,1016.44
2017-03-31T05:46:10.494Z,1016.45
2017-03-31T05:46:36.070Z,1016.46
2017-03-31T05:47:01.716Z,1016.48
2017-03-31T05:47:27.287Z,1016.41
2017-03-31T05:47:52.865Z,1016.45
2017-03-31T05:48:18.409Z,1016.48
2017-03-31T05:48:43.956Z,1016.45
2017-03-31T05:49:09.504Z,1016.42
2017-03-31T05:49:35.088Z,1016.47
2017-03-31T05:50:00.656Z,1016.44
2017-03-31T05:50:26.226Z,1016.47
2017-03-31T05:50:51.787Z,1016.43
2017-03-31T05:51:17.346Z,1016.48
2017-03-31T05:51:42.907Z,1016.42
2017-03-31T05:52:08.465Z,1016.42
2017-03-31T05:52:34.011Z,1016.44
2017-03-31T05:52:59.577Z,1016.43
2017-03-31T05:53:25.179Z,1016.47
2017-03-31T05:53:50.752Z,1016.46
2017-03-31T05:54:16.322Z,1016.45
2017-03-31T05:54:41.897Z,1016.41
2017-03-31T05:55:07.494Z,1016.47
2017-03-31T05:55:33.052Z,1016.45
2017-03-31T05:55:58.601Z,1016.43
2017-03-31T05:56:24.179Z,1016.45
2017-03-31T05:56:49.759Z,1016.47
2017-03-31T05:57:15.340Z,1016.43
2017-03-31T05:57:40.894Z,1016.4
2017-03-31T05:58:06.456Z,1016.45
2017-03-31T05:58:32.031Z,1016.38
2017-03-31T05:58:57.621Z,1016.37
2017-03-31T05:59:23.191Z,1016.41
2017-03-31T05:59:48.761Z,1016.39
2017-03-31T06:00:14.319Z,1016.42
2017-03-31T06:01:12.709Z,1016.44
2017-03-31T06:01:38.262Z,1016.43
2017-03-31T06:02:03.834Z,1016.39
2017-03-31T06:02:29.391Z,1016.39
2017-03-31T06:02:54.985Z,1016.39
2017-03-31T06:03:20.721Z,1016.37
2017-03-31T06:03:46.377Z,1016.38
2017-03-31T06:04:12.154Z,1016.36
2017-03-31T06:04:37.699Z,1016.41
2017-03-31T06:05:03.304Z,1016.38
2017-03-31T06:05:28.929Z,1016.35
2017-03-31T06:05:54.549Z,1016.35
2017-03-31T06:06:20.191Z,1016.36
2017-03-31T06:06:45.764Z,1016.33
2017-03-31T06:07:11.321Z,1016.33
2017-03-31T06:07:36.870Z,1016.32
2017-03-31T06:08:02.555Z,1016.29
2017-03-31T06:08:28.126Z,1016.35
2017-03-31T06:08:53.711Z,1016.31
2017-03-31T06:09:19.419Z,1016.31
2017-03-31T06:09:44.970Z,1016.3
2017-03-31T06:10:10.591Z,1016.31
2017-03-31T06:10:36.235Z,1016.3
2017-03-31T06:11:01.798Z,1016.33
2017-03-31T06:11:27.421Z,1016.3
2017-03-31T06:11:52.988Z,1016.29
2017-03-31T06:12:18.660Z,1016.28
2017-03-31T06:12:44.271Z,1016.31
2017-03-31T06:13:09.833Z,1016.28
2017-03-31T06:13:35.428Z,1016.31
2017-03-31T06:14:01.001Z,1016.28
2017-03-31T06:14:26.639Z,1016.27
2017-03-31T06:14:52.236Z,1016.26
2017-03-31T06:15:17.823Z,1016.29
2017-03-31T06:15:43.457Z,1016.26
2017-03-31T06:16:41.859Z,1016.23
2017-03-31T06:17:07.490Z,1016.23
2017-03-31T06:17:33.042Z,1016.22
2017-03-31T06:17:58.599Z,1016.24
2017-03-31T06:18:24.149Z,1016.27
2017-03-31T06:18:49.778Z,1016.25
2017-03-31T06:19:15.348Z,1016.23
2017-03-31T06:19:40.898Z,1016.24
2017-03-31T06:20:06.533Z,1016.24
2017-03-31T06:20:32.097Z,1016.27
2017-03-31T06:20:57.725Z,1016.25
2017-03-31T06:21:23.412Z,1016.2
2017-03-31T06:21:49.088Z,1016.2
2017-03-31T06:22:14.731Z,1016.21
2017-03-31T06:22:40.379Z,1016.21
2017-03-31T06:23:05.956Z,1016.2
2017-03-31T06:23:31.599Z,1016.2
2017-03-31T06:23:57.154Z,1016.2
2017-03-31T06:24:22.815Z,1016.18
2017-03-31T06:24:48.488Z,1016.16
2017-03-31T06:25:52.468Z,1016.13
2017-03-31T06:26:18.022Z,1016.17
2017-03-31T06:26:43.648Z,1016.11
2017-03-31T06:27:09.213Z,1016.15
2017-03-31T06:27:34.843Z,1016.13
2017-03-31T06:28:00.510Z,1016.13
2017-03-31T06:28:26.087Z,1016.09
2017-03-31T06:28:51.681Z,1016.13
2017-03-31T06:29:17.228Z,1016.1
2017-03-31T06:29:42.800Z,1016.09
2017-03-31T06:30:08.361Z,1016.08
2017-03-31T06:30:34.048Z,1016.14
2017-03-31T06:30:59.592Z,1016.09
2017-03-31T06:31:57.988Z,1016.07
2017-03-31T06:32:23.555Z,1016.06
2017-03-31T06:32:49.097Z,1016.11
2017-03-31T06:33:14.639Z,1016.11
2017-03-31T06:33:40.187Z,1016.1
2017-03-31T06:34:05.761Z,1016.08
2017-03-31T06:34:31.300Z,1016.08
2017-03-31T06:34:56.875Z,1016.08
2017-03-31T06:35:22.434Z,1016.05
2017-03-31T06:35:48.086Z,1016.07
2017-03-31T06:36:13.629Z,1016.06
2017-03-31T06:36:39.168Z,1016.06
2017-03-31T06:37:04.710Z,1016.04
2017-03-31T06:37:30.260Z,1016.04
2017-03-31T06:37:55.845Z,1016.02
2017-03-31T06:38:21.394Z,1016.03
2017-03-31T06:38:47.048Z,1016.02
2017-03-31T06:39:12.605Z,1016.01
2017-03-31T06:39:38.172Z,1015.99
2017-03-31T06:40:03.741Z,1016
2017-03-31T06:40:29.310Z,1016.01
2017-03-31T06:40:54.981Z,1015.96
2017-03-31T06:41:20.529Z,1015.97
2017-03-31T06:41:46.069Z,1015.95
2017-03-31T06:42:11.624Z,1015.97
2017-03-31T06:42:37.174Z,1015.96
2017-03-31T06:43:02.743Z,1015.98
2017-03-31T06:43:28.285Z,1015.95
2017-03-31T06:43:53.851Z,1015.92
2017-03-31T06:44:19.395Z,1015.98
2017-03-31T06:44:44.969Z,1015.96
2017-03-31T06:45:10.818Z,1015.96
2017-03-31T06:45:36.407Z,1015.92
2017-03-31T06:46:02.017Z,1015.96
2017-03-31T06:46:27.558Z,1015.94
2017-03-31T06:46:53.110Z,1015.94
2017-03-31T06:47:18.656Z,1015.95
2017-03-31T06:47:44.261Z,1015.94
2017-03-31T06:48:09.822Z,1015.97
2017-03-31T06:48:35.395Z,1015.91
2017-03-31T06:49:00.949Z,1015.96
2017-03-31T06:49:26.497Z,1015.94
2017-03-31T06:49:52.148Z,1015.93
2017-03-31T06:50:17.706Z,1015.9
2017-03-31T06:50:43.289Z,1015.93
2017-03-31T06:51:08.876Z,1015.91
2017-03-31T06:51:34.401Z,1015.91
2017-03-31T06:51:59.963Z,1015.91
2017-03-31T06:52:25.520Z,1015.92
2017-03-31T06:52:51.219Z,1015.89
2017-03-31T06:53:16.905Z,1015.91
2017-03-31T06:53:42.461Z,1015.9
2017-03-31T06:54:08.050Z,1015.92
2017-03-31T06:54:33.625Z,1015.92
2017-03-31T06:54:59.185Z,1015.89
2017-03-31T06:55:24.745Z,1015.9
2017-03-31T06:55:50.409Z,1015.9
2017-03-31T06:56:15.960Z,1015.89
2017-03-31T06:56:41.513Z,1015.87
2017-03-31T06:57:07.058Z,1015.86
2017-03-31T06:57:32.604Z,1015.86
2017-03-31T06:57:58.148Z,1015.88
2017-03-31T06:58:23.762Z,1015.86
2017-03-31T06:58:49.339Z,1015.87
2017-03-31T06:59:14.895Z,1015.87
2017-03-31T06:59:40.471Z,1015.88
2017-03-31T07:00:06.171Z,1015.86
2017-03-31T07:00:31.730Z,1015.81
2017-03-31T07:00:57.289Z,1015.84
2017-03-31T07:01:22.860Z,1015.86
2017-03-31T07:01:48.411Z,1015.88
2017-03-31T07:02:13.959Z,1015.86
2017-03-31T07:02:39.554Z,1015.86
2017-03-31T07:03:05.119Z,1015.86
2017-03-31T07:03:30.687Z,1015.88
2017-03-31T07:03:56.290Z,1015.83
2017-03-31T07:04:21.849Z,1015.83
2017-03-31T07:04:47.400Z,1015.8
2017-03-31T07:05:12.959Z,1015.81
2017-03-31T07:05:38.511Z,1015.87
2017-03-31T07:06:04.061Z,1015.86
2017-03-31T07:06:29.623Z,1015.8
2017-03-31T07:06:55.262Z,1015.83
2017-03-31T07:07:20.820Z,1015.81
2017-03-31T07:07:46.432Z,1015.84
2017-03-31T07:08:12.021Z,1015.83
2017-03-31T07:08:37.575Z,1015.82
2017-03-31T07:09:03.121Z,1015.85
2017-03-31T07:09:28.735Z,1015.8
2017-03-31T07:09:54.339Z,1015.83
2017-03-31T07:10:19.891Z,1015.8
2017-03-31T07:10:45.499Z,1015.84
2017-03-31T07:11:11.120Z,1015.83
2017-03-31T07:11:36.678Z,1015.85
2017-03-31T07:12:02.343Z,1015.79
2017-03-31T07:12:27.960Z,1015.79
2017-03-31T07:12:53.550Z,1015.79
2017-03-31T07:13:19.092Z,1015.77
2017-03-31T07:13:44.729Z,1015.74
2017-03-31T07:14:10.296Z,1015.8
2017-03-31T07:14:35.844Z,1015.8
2017-03-31T07:15:01.480Z,1015.78
2017-03-31T07:15:27.059Z,1015.75
2017-03-31T07:15:52.618Z,1015.71
2017-03-31T07:16:18.199Z,1015.74
2017-03-31T07:16:43.775Z,1015.74
2017-03-31T07:17:09.337Z,1015.75
2017-03-31T07:17:34.892Z,1015.76
2017-03-31T07:18:00.458Z,1015.74
2017-03-31T07:18:26.011Z,1015.76
2017-03-31T07:18:51.696Z,1015.72
2017-03-31T07:19:17.240Z,1015.7
2017-03-31T07:19:42.789Z,1015.74
2017-03-31T07:20:08.349Z,1015.73
2017-03-31T07:20:33.913Z,1015.71
2017-03-31T07:20:59.471Z,1015.72
2017-03-31T07:21:25.037Z,1015.71
2017-03-31T07:21:50.589Z,1015.69
2017-03-31T07:22:16.151Z,1015.73
2017-03-31T07:22:41.872Z,1015.74
2017-03-31T07:23:07.420Z,1015.72
2017-03-31T07:23:32.982Z,1015.7
2017-03-31T07:23:58.552Z,1015.72
2017-03-31T07:24:24.110Z,1015.68
2017-03-31T07:24:49.683Z,1015.7
2017-03-31T07:25:15.253Z,1015.67
2017-03-31T07:25:40.812Z,1015.67
2017-03-31T07:26:06.363Z,1015.68
2017-03-31T07:26:31.923Z,1015.63
2017-03-31T07:26:57.497Z,1015.64
2017-03-31T07:27:23.058Z,1015.66
2017-03-31T07:27:48.646Z,1015.64
2017-03-31T07:28:14.199Z,1015.62
2017-03-31T07:28:39.778Z,1015.63
2017-03-31T07:29:05.350Z,1015.66
2017-03-31T07:29:30.908Z,1015.65
2017-03-31T07:29:56.482Z,1015.65
2017-03-31T07:30:22.047Z,1015.62
2017-03-31T07:30:47.607Z,1015.64
2017-03-31T07:31:13.165Z,1015.64
2017-03-31T07:31:38.713Z,1015.61
2017-03-31T07:32:04.270Z,1015.66
2017-03-31T07:32:29.966Z,1015.64
2017-03-31T07:32:55.526Z,1015.62
2017-03-31T07:33:21.081Z,1015.64
2017-03-31T07:33:46.780Z,1015.62
2017-03-31T07:34:12.348Z,1015.63
2017-03-31T07:34:37.924Z,1015.61
2017-03-31T07:35:03.505Z,1015.66
2017-03-31T07:35:29.177Z,1015.65
2017-03-31T07:35:54.766Z,1015.61
2017-03-31T07:36:20.445Z,1015.6
2017-03-31T07:36:46.018Z,1015.61
2017-03-31T07:37:11.578Z,1015.61
2017-03-31T07:37:37.157Z,1015.57
2017-03-31T07:38:02.740Z,1015.61
2017-03-31T07:38:28.307Z,1015.58
2017-03-31T07:38:53.866Z,1015.57
2017-03-31T07:39:19.429Z,1015.59
2017-03-31T07:39:45.019Z,1015.57
2017-03-31T07:40:10.570Z,1015.55
2017-03-31T07:40:36.312Z,1015.59
2017-03-31T07:41:01.963Z,1015.56
2017-03-31T07:41:27.511Z,1015.59
2017-03-31T07:41:53.067Z,1015.53
2017-03-31T07:42:18.616Z,1015.56
2017-03-31T07:42:44.180Z,1015.54
2017-03-31T07:43:09.751Z,1015.54
2017-03-31T07:43:35.339Z,1015.53
2017-03-31T07:44:00.903Z,1015.51
2017-03-31T07:44:26.472Z,1015.51
2017-03-31T07:44:52.046Z,1015.49
2017-03-31T07:45:17.606Z,1015.51
2017-03-31T07:45:43.169Z,1015.52
2017-03-31T07:46:08.731Z,1015.49
2017-03-31T07:46:34.309Z,1015.5
2017-03-31T07:46:59.864Z,1015.47
2017-03-31T07:47:25.423Z,1015.45
2017-03-31T07:47:50.983Z,1015.43
2017-03-31T07:48:16.544Z,1015.45
2017-03-31T07:48:42.116Z,1015.46
2017-03-31T07:49:07.730Z,1015.45
2017-03-31T07:49:33.313Z,1015.4
2017-03-31T07:49:58.869Z,1015.42
2017-03-31T07:50:24.443Z,1015.46
2017-03-31T07:50:50.027Z,1015.44
2017-03-31T07:51:15.593Z,1015.41
2017-03-31T07:51:41.140Z,1015.45
2017-03-31T07:52:06.701Z,1015.38
2017-03-31T07:52:32.274Z,1015.38
2017-03-31T07:52:57.907Z,1015.41
2017-03-31T07:53:23.469Z,1015.4
2017-03-31T07:53:49.033Z,1015.39
2017-03-31T07:54:14.699Z,1015.42
2017-03-31T07:54:40.276Z,1015.33
2017-03-31T07:55:05.837Z,1015.34
2017-03-31T07:55:31.531Z,1015.34
2017-03-31T07:55:57.102Z,1015.33
2017-03-31T07:56:22.664Z,1015.33
2017-03-31T07:56:48.312Z,1015.34
2017-03-31T07:57:13.961Z,1015.34
2017-03-31T07:57:39.532Z,1015.36
2017-03-31T07:58:05.081Z,1015.32
2017-03-31T07:58:30.631Z,1015.32
2017-03-31T07:58:56.281Z,1015.31
2017-03-31T07:59:21.841Z,1015.32
2017-03-31T07:59:47.505Z,1015.28
2017-03-31T08:00:13.067Z,1015.28
2017-03-31T08:00:38.632Z,1015.23
2017-03-31T08:01:04.188Z,1015.28
2017-03-31T08:01:29.830Z,1015.24
2017-03-31T08:01:55.422Z,1015.25
2017-03-31T08:02:21.004Z,1015.21
2017-03-31T08:02:46.773Z,1015.22
2017-03-31T08:03:12.342Z,1015.19
2017-03-31T08:03:37.931Z,1015.23
2017-03-31T08:04:03.497Z,1015.21
2017-03-31T08:04:29.128Z,1015.19
2017-03-31T08:04:54.682Z,1015.19
2017-03-31T08:05:20.235Z,1015.2
2017-03-31T08:05:45.792Z,1015.16
2017-03-31T08:06:11.373Z,1015.16
2017-03-31T08:06:36.945Z,1015.14
2017-03-31T08:07:02.510Z,1015.15
2017-03-31T08:07:28.080Z,1015.16
2017-03-31T08:07:53.668Z,1015.19
2017-03-31T08:08:19.242Z,1015.16
2017-03-31T08:08:44.801Z,1015.14
2017-03-31T08:09:10.524Z,1015.11
2017-03-31T08:09:36.100Z,1015.18
2017-03-31T08:10:01.651Z,1015.15
2017-03-31T08:10:27.201Z,1015.11
2017-03-31T08:10:52.800Z,1015.13
2017-03-31T08:11:18.368Z,1015.13
2017-03-31T08:11:43.932Z,1015.13
2017-03-31T08:12:09.503Z,1015.13
2017-03-31T08:12:35.056Z,1015.14
2017-03-31T08:13:00.706Z,1015.1
2017-03-31T08:13:26.282Z,1015.12
2017-03-31T08:13:51.842Z,1015.12
2017-03-31T08:14:17.463Z,1015.11
2017-03-31T08:14:43.138Z,1015.09
2017-03-31T08:15:08.686Z,1015.07